Time;durP1;ratioP1;P1;durP2;ratioP2;P2;SDS_P1;SDS_P2;PMS_P1;PMS_P2;Temp;Humidity;BMP_temperature;BMP_pressure;BME280_temperature;BME280_humidity;BME280_pressure;Samples;Min_cycle;Max_cycle;Signal;HPM_P1;HPM_P2
2023/05/24 00:01:49;;;;;;;14.35;4.25;;;;;;;7.52;91.67;102403.84;5031895;28;20057;-73
2023/05/24 00:04:14;;;;;;;17.05;3.92;;;;;;;7.51;91.93;102408.22;5032754;28;20096;-73
2023/05/24 00:06:41;;;;;;;15.43;4.15;;;;;;;7.47;92.05;102406.63;5032566;28;20136;-74
2023/05/24 00:09:06;;;;;;;14.10;4.60;;;;;;;7.43;91.87;102401.53;5033227;28;20422;-74
2023/05/24 00:11:32;;;;;;;13.52;4.30;;;;;;;7.39;92.29;102398.19;5033242;28;20156;-74
2023/05/24 00:13:58;;;;;;;17.27;4.70;;;;;;;7.38;92.46;102391.25;5033470;28;20029;-74
2023/05/24 00:16:23;;;;;;;13.05;3.85;;;;;;;7.37;92.38;102391.31;5033149;28;20036;-74
2023/05/24 00:18:49;;;;;;;11.15;3.63;;;;;;;7.32;92.44;102378.38;5031933;28;20033;-74
2023/05/24 00:21:14;;;;;;;11.70;3.80;;;;;;;7.36;92.83;102382.59;5032441;28;20026;-73
2023/05/24 00:23:40;;;;;;;15.38;4.85;;;;;;;7.26;92.59;102377.75;5032734;28;20104;-73
2023/05/24 00:26:09;;;;;;;13.05;3.78;;;;;;;7.27;92.95;102380.31;5032386;28;20025;-73
2023/05/24 00:28:35;;;;;;;14.40;4.30;;;;;;;7.21;93.23;102375.28;5031735;28;20123;-73
2023/05/24 00:31:02;;;;;;;16.70;4.78;;;;;;;7.19;93.40;102375.31;5031076;28;20022;-74
2023/05/24 00:33:27;;;;;;;14.65;4.60;;;;;;;7.11;93.39;102374.75;5031986;28;20025;-73
2023/05/24 00:35:57;;;;;;;15.48;4.18;;;;;;;7.17;93.52;102377.13;5030644;28;20033;-74
2023/05/24 00:38:24;;;;;;;14.52;4.53;;;;;;;7.12;93.63;102372.97;5031009;28;20021;-74
2023/05/24 00:40:49;;;;;;;14.02;4.70;;;;;;;7.10;94.12;102372.19;5031021;28;20033;-73
2023/05/24 00:43:15;;;;;;;12.27;4.43;;;;;;;7.05;94.10;102367.09;5030879;28;20482;-74
2023/05/24 00:45:41;;;;;;;13.05;4.55;;;;;;;7.01;93.77;102367.28;5031168;28;20025;-73
2023/05/24 00:48:07;;;;;;;10.57;4.07;;;;;;;6.99;94.07;102366.47;5031173;28;20040;-73
2023/05/24 00:50:33;;;;;;;13.60;4.50;;;;;;;6.98;94.58;102367.38;5029983;28;20024;-73
2023/05/24 00:53:02;;;;;;;13.65;5.15;;;;;;;6.96;94.41;102361.34;5029876;28;20022;-73
2023/05/24 00:55:33;;;;;;;12.27;3.92;;;;;;;6.89;95.00;102364.19;5030260;28;20022;-73
2023/05/24 00:58:01;;;;;;;13.35;5.38;;;;;;;6.84;94.95;102358.25;5029950;28;20079;-74
2023/05/24 01:00:28;;;;;;;11.70;4.45;;;;;;;6.86;95.12;102366.91;5030996;28;20026;-73
2023/05/24 01:02:54;;;;;;;11.57;4.78;;;;;;;6.82;95.49;102354.84;5029912;28;20363;-73
2023/05/24 01:05:20;;;;;;;15.38;5.05;;;;;;;6.75;94.85;102362.91;5029018;28;20049;-73
2023/05/24 01:08:11;;;;;;;13.63;4.30;;;;;;;6.74;95.50;102356.81;5031758;28;20104;-73
2023/05/24 01:11:01;;;;;;;16.15;4.82;;;;;;;6.76;96.38;102362.84;5000053;28;20037;-73
2023/05/24 01:13:57;;;;;;;16.35;4.75;;;;;;;6.76;95.64;102349.78;5014888;28;20037;-73
2023/05/24 01:16:52;;;;;;;17.05;4.90;;;;;;;6.73;96.05;102362.97;5013638;28;20032;-73
2023/05/24 01:19:42;;;;;;;15.13;5.25;;;;;;;6.67;96.39;102352.72;5031749;28;20033;-73
2023/05/24 01:23:10;;;;;;;15.10;5.00;;;;;;;6.66;96.64;102353.63;5013876;28;20029;-73
2023/05/24 01:26:00;;;;;;;12.25;4.63;;;;;;;6.60;96.82;102349.44;4950446;29;20480;-73
2023/05/24 01:28:34;;;;;;;13.93;4.80;;;;;;;6.57;96.40;102349.56;4951448;28;20038;-73
2023/05/24 01:31:03;;;;;;;14.25;5.07;;;;;;;6.51;96.93;102352.38;5011826;28;20037;-73
2023/05/24 01:33:32;;;;;;;14.40;4.57;;;;;;;6.49;97.20;102345.50;5030992;28;20025;-73
2023/05/24 01:35:57;;;;;;;16.65;5.10;;;;;;;6.43;97.31;102357.00;5031784;28;20028;-73
2023/05/24 01:38:23;;;;;;;14.48;4.55;;;;;;;6.45;97.20;102349.97;5029734;28;20029;-73
2023/05/24 01:41:02;;;;;;;13.38;4.80;;;;;;;6.47;97.45;102360.38;5029873;28;20528;-73
2023/05/24 01:43:40;;;;;;;11.07;5.05;;;;;;;6.45;97.49;102346.50;5030178;28;20033;-72
2023/05/24 01:46:45;;;;;;;10.50;4.43;;;;;;;6.37;97.54;102351.09;5029346;28;20025;-73
2023/05/24 01:49:21;;;;;;;13.52;5.13;;;;;;;6.40;97.21;102351.00;5011980;28;20025;-73
2023/05/24 01:51:55;;;;;;;11.63;5.00;;;;;;;6.32;97.17;102348.63;5029108;28;20056;-72
2023/05/24 01:54:24;;;;;;;14.90;5.30;;;;;;;6.29;97.76;102336.53;5030226;28;20034;-72
2023/05/24 01:56:51;;;;;;;16.58;5.10;;;;;;;6.28;97.69;102336.56;5029953;28;20036;-73
2023/05/24 01:59:19;;;;;;;13.30;4.82;;;;;;;6.24;97.59;102337.56;5029448;28;20048;-72
2023/05/24 02:01:45;;;;;;;15.07;4.93;;;;;;;6.22;97.80;102337.63;5012156;28;20113;-73
2023/05/24 02:04:10;;;;;;;10.95;4.82;;;;;;;6.17;97.66;102344.75;5011715;28;20032;-73
2023/05/24 02:06:36;;;;;;;12.15;5.00;;;;;;;6.20;98.14;102339.44;5012111;28;20398;-73
2023/05/24 02:09:02;;;;;;;17.10;5.15;;;;;;;6.15;98.35;102348.31;5030640;28;20025;-73
2023/05/24 02:11:27;;;;;;;11.40;4.85;;;;;;;6.12;98.13;102351.03;5031038;28;20014;-73
2023/05/24 02:13:53;;;;;;;12.60;5.20;;;;;;;6.10;98.04;102352.84;5013279;28;20438;-73
2023/05/24 02:16:18;;;;;;;13.07;4.60;;;;;;;6.07;98.39;102352.94;5030764;28;20363;-73
2023/05/24 02:18:45;;;;;;;10.20;4.43;;;;;;;6.02;98.49;102350.47;5031104;28;20386;-73
2023/05/24 02:21:11;;;;;;;13.30;5.15;;;;;;;6.00;99.08;102357.47;5011859;28;20482;-73
2023/05/24 02:23:37;;;;;;;14.65;4.97;;;;;;;5.97;99.00;102349.72;5012961;28;20448;-73
2023/05/24 02:26:03;;;;;;;14.27;5.38;;;;;;;5.96;98.69;102356.72;5023440;28;20100;-72
2023/05/24 02:28:31;;;;;;;12.68;5.40;;;;;;;5.87;98.24;102356.13;5029660;28;20025;-72
2023/05/24 02:30:56;;;;;;;11.80;4.80;;;;;;;5.86;98.82;102357.88;5029455;28;20021;-72
2023/05/24 02:33:24;;;;;;;11.43;4.70;;;;;;;5.86;98.43;102364.84;5029409;28;20430;-73
2023/05/24 02:35:50;;;;;;;12.52;4.47;;;;;;;5.85;98.71;102356.16;5028189;28;20029;-74
2023/05/24 02:38:16;;;;;;;11.52;5.45;;;;;;;5.82;99.12;102358.00;5011946;28;20025;-72
2023/05/24 02:40:41;;;;;;;13.40;5.10;;;;;;;5.81;98.38;102351.06;5028858;28;20033;-73
2023/05/24 02:43:08;;;;;;;13.63;5.43;;;;;;;5.71;98.82;102352.25;5028670;28;20090;-72
2023/05/24 02:45:35;;;;;;;16.85;5.32;;;;;;;5.73;99.48;102347.84;5028219;28;20478;-73
2023/05/24 02:48:00;;;;;;;13.20;4.90;;;;;;;5.75;99.09;102351.25;5028377;28;20112;-74
2023/05/24 02:50:26;;;;;;;10.95;4.80;;;;;;;5.78;99.21;102361.63;5029262;28;20501;-73
2023/05/24 02:52:51;;;;;;;14.55;5.32;;;;;;;5.69;99.39;102356.69;5011766;28;20025;-73
2023/05/24 02:55:17;;;;;;;13.77;4.70;;;;;;;5.65;99.48;102361.13;5029286;28;20477;-73
2023/05/24 02:57:42;;;;;;;14.02;5.25;;;;;;;5.64;99.15;102365.50;5029732;28;20425;-73
2023/05/24 03:00:09;;;;;;;15.70;5.10;;;;;;;5.67;99.26;102359.34;5011613;28;20057;-72
2023/05/24 03:02:37;;;;;;;13.38;5.07;;;;;;;5.64;99.99;102367.25;5028830;28;20083;-72
2023/05/24 03:05:05;;;;;;;12.38;4.72;;;;;;;5.66;99.29;102363.69;5012017;28;20041;-72
2023/05/24 03:07:30;;;;;;;10.68;4.55;;;;;;;5.62;99.27;102366.44;5030054;28;20029;-73
2023/05/24 03:09:56;;;;;;;11.57;5.43;;;;;;;5.60;99.38;102366.50;5012113;28;20100;-73
2023/05/24 03:12:21;;;;;;;10.48;4.53;;;;;;;5.56;99.06;102366.59;5030366;28;20029;-73
2023/05/24 03:14:46;;;;;;;10.73;4.53;;;;;;;5.49;98.76;102360.69;5012730;28;20107;-73
2023/05/24 03:17:12;;;;;;;14.13;5.25;;;;;;;5.55;99.82;102359.66;5029385;28;20053;-73
2023/05/24 03:19:37;;;;;;;8.98;4.75;;;;;;;5.50;99.94;102359.78;5029986;28;20101;-73
2023/05/24 03:22:02;;;;;;;13.13;4.95;;;;;;;5.45;99.52;102353.00;5014296;28;20083;-73
2023/05/24 03:24:28;;;;;;;13.50;5.45;;;;;;;5.48;99.11;102359.00;5034657;28;20414;-73
2023/05/24 03:26:53;;;;;;;10.65;4.85;;;;;;;5.47;99.35;102352.06;5009568;28;20108;-73
2023/05/24 03:29:18;;;;;;;12.13;5.03;;;;;;;5.37;100.00;102355.84;5033721;28;20302;-73
2023/05/24 03:31:43;;;;;;;14.63;5.35;;;;;;;5.47;100.00;102345.97;5014791;28;20049;-73
2023/05/24 03:34:09;;;;;;;16.55;5.72;;;;;;;5.44;100.00;102356.50;5032949;28;20228;-73
2023/05/24 03:36:35;;;;;;;10.30;5.43;;;;;;;5.46;100.00;102355.56;5032507;28;20069;-73
2023/05/24 03:39:03;;;;;;;13.98;5.60;;;;;;;5.41;100.00;102347.00;5031600;28;20032;-73
2023/05/24 03:41:31;;;;;;;13.10;5.38;;;;;;;5.41;100.00;102352.22;5015038;28;20393;-73
2023/05/24 03:43:56;;;;;;;12.13;5.85;;;;;;;5.41;100.00;102347.00;5015042;28;20120;-73
2023/05/24 03:46:21;;;;;;;21.85;6.57;;;;;;;5.39;100.00;102346.19;5014378;28;20112;-73
2023/05/24 03:48:50;;;;;;;13.65;6.35;;;;;;;5.36;100.00;102346.28;5011856;28;20024;-73
2023/05/24 03:51:16;;;;;;;15.38;5.40;;;;;;;5.40;100.00;102353.13;5029851;28;20091;-73
2023/05/24 03:53:42;;;;;;;12.80;5.65;;;;;;;5.39;100.00;102353.19;5032295;28;20033;-73
2023/05/24 03:56:07;;;;;;;12.57;5.35;;;;;;;5.32;100.00;102342.91;5013935;28;20025;-73
2023/05/24 03:58:32;;;;;;;13.77;5.60;;;;;;;5.39;100.00;102354.03;5031869;28;20053;-73
2023/05/24 04:00:58;;;;;;;15.75;6.40;;;;;;;5.40;100.00;102354.88;5032139;28;20462;-73
2023/05/24 04:03:24;;;;;;;12.50;5.03;;;;;;;5.42;100.00;102348.72;5014350;28;20038;-73
2023/05/24 04:05:50;;;;;;;12.98;5.35;;;;;;;5.44;100.00;102352.16;5031107;28;20052;-73
2023/05/24 04:08:15;;;;;;;10.30;5.10;;;;;;;5.47;100.00;102353.81;5014393;28;20120;-73
2023/05/24 04:10:41;;;;;;;13.25;5.20;;;;;;;5.63;100.00;102353.34;5014811;28;20440;-73
2023/05/24 04:13:07;;;;;;;14.48;5.72;;;;;;;5.80;100.00;102349.38;5032075;28;20029;-73
2023/05/24 04:15:32;;;;;;;16.73;5.85;;;;;;;5.89;100.00;102338.63;5015196;28;20092;-73
2023/05/24 04:17:59;;;;;;;15.55;6.43;;;;;;;5.90;100.00;102346.47;5032610;28;20053;-73
2023/05/24 04:20:26;;;;;;;19.73;6.47;;;;;;;6.31;100.00;102348.69;5014971;28;20055;-73
2023/05/24 04:22:52;;;;;;;17.98;6.15;;;;;;;6.85;98.38;102344.25;5014838;28;20034;-72
2023/05/24 04:25:18;;;;;;;17.23;5.88;;;;;;;7.18;96.02;102350.06;5012540;28;20386;-72
2023/05/24 04:27:44;;;;;;;16.73;6.05;;;;;;;7.80;93.98;102351.28;5027181;28;20025;-73
2023/05/24 04:30:10;;;;;;;16.13;6.32;;;;;;;7.98;91.81;102357.56;5032274;28;20485;-73
2023/05/24 04:32:36;;;;;;;13.77;5.55;;;;;;;8.07;90.88;102347.59;5031032;28;20060;-73
2023/05/24 04:35:01;;;;;;;19.27;7.05;;;;;;;7.87;91.52;102347.50;5012970;28;20076;-73
2023/05/24 04:37:28;;;;;;;17.90;6.13;;;;;;;7.73;91.92;102345.41;5032290;28;20032;-73
2023/05/24 04:39:53;;;;;;;17.48;6.63;;;;;;;7.49;92.72;102356.81;5013528;28;20018;-73
2023/05/24 04:42:19;;;;;;;13.13;5.72;;;;;;;7.34;93.98;102346.91;5030780;28;20276;-73
2023/05/24 04:44:44;;;;;;;14.48;5.55;;;;;;;7.27;94.70;102356.75;5031335;28;20496;-73
2023/05/24 04:47:11;;;;;;;16.83;6.97;;;;;;;7.09;95.32;102357.38;5030622;28;20026;-73
2023/05/24 04:49:37;;;;;;;16.08;6.47;;;;;;;7.09;96.52;102357.38;5030674;28;20021;-73
2023/05/24 04:52:03;;;;;;;20.02;7.63;;;;;;;7.06;97.26;102357.50;5030986;28;20201;-73
2023/05/24 04:54:28;;;;;;;19.13;7.43;;;;;;;7.02;98.37;102355.88;5030877;28;20165;-73
2023/05/24 04:56:53;;;;;;;17.92;6.75;;;;;;;7.02;98.57;102361.97;5030969;28;20021;-72
2023/05/24 04:59:19;;;;;;;20.95;8.13;;;;;;;7.02;99.02;102361.97;5013710;28;20041;-73
2023/05/24 05:01:44;;;;;;;18.75;8.15;;;;;;;6.96;99.92;102356.09;5030635;28;20033;-72
2023/05/24 05:04:09;;;;;;;21.40;7.78;;;;;;;6.99;100.00;102349.00;5030695;28;20031;-73
2023/05/24 05:06:38;;;;;;;17.70;7.03;;;;;;;7.04;100.00;102359.31;5013577;28;20033;-73
2023/05/24 05:09:08;;;;;;;18.33;8.25;;;;;;;7.00;100.00;102355.09;5031056;28;20039;-73
2023/05/24 05:11:33;;;;;;;23.95;8.25;;;;;;;7.09;100.00;102353.00;5032125;28;20017;-73
2023/05/24 05:13:58;;;;;;;20.38;7.78;;;;;;;7.09;100.00;102350.38;5032089;28;20040;-73
2023/05/24 05:16:24;;;;;;;21.88;8.02;;;;;;;7.14;100.00;102351.06;5031301;28;20040;-73
2023/05/24 05:18:49;;;;;;;24.33;8.70;;;;;;;7.19;100.00;102358.75;5029926;28;20509;-73
2023/05/24 05:21:15;;;;;;;31.48;9.23;;;;;;;7.23;100.00;102361.25;5030509;28;20437;-75
2023/05/24 05:23:41;;;;;;;21.20;8.10;;;;;;;7.29;100.00;102368.00;5031033;28;20060;-73
2023/05/24 05:26:06;;;;;;;22.60;8.18;;;;;;;7.34;100.00;102357.38;5031807;28;20041;-73
2023/05/24 05:28:32;;;;;;;20.48;8.27;;;;;;;7.38;100.00;102366.81;5031607;28;20388;-73
2023/05/24 05:31:03;;;;;;;26.55;9.57;;;;;;;7.48;100.00;102374.28;5031032;28;20017;-73
2023/05/24 05:33:31;;;;;;;24.00;8.65;;;;;;;7.52;100.00;102368.03;5031543;28;20096;-73
2023/05/24 05:36:00;;;;;;;32.03;9.75;;;;;;;7.62;100.00;102370.31;5030506;28;20025;-73
2023/05/24 05:38:27;;;;;;;29.95;9.68;;;;;;;7.69;100.00;102361.31;5028736;28;20699;-73
2023/05/24 05:40:56;;;;;;;25.13;9.48;;;;;;;7.73;100.00;102360.28;5012371;28;20021;-73
2023/05/24 05:43:23;;;;;;;25.77;9.30;;;;;;;7.82;100.00;102366.03;5012624;28;20023;-73
2023/05/24 05:45:49;;;;;;;24.73;8.48;;;;;;;7.91;100.00;102359.56;5028760;28;20033;-73
2023/05/24 05:48:14;;;;;;;30.45;9.57;;;;;;;7.99;100.00;102360.13;5011844;28;20033;-73
2023/05/24 05:50:40;;;;;;;32.63;9.65;;;;;;;8.10;100.00;102362.34;5029102;28;20029;-73
2023/05/24 05:53:05;;;;;;;35.78;9.55;;;;;;;8.16;100.00;102359.47;5028517;28;20021;-73
2023/05/24 05:55:30;;;;;;;27.75;8.95;;;;;;;8.24;100.00;102361.78;5028917;28;20052;-74
2023/05/24 05:57:56;;;;;;;29.58;10.27;;;;;;;8.31;100.00;102368.50;5011442;28;20021;-73
2023/05/24 06:00:22;;;;;;;26.35;9.20;;;;;;;8.39;100.00;102366.44;5029684;28;20071;-73
2023/05/24 06:02:47;;;;;;;32.33;10.27;;;;;;;8.48;100.00;102371.34;5029618;28;20670;-73
2023/05/24 06:05:13;;;;;;;25.02;9.32;;;;;;;8.53;100.00;102369.38;5021647;28;20053;-73
2023/05/24 06:07:38;;;;;;;24.52;9.05;;;;;;;8.67;100.00;102372.28;5009970;28;20038;-73
2023/05/24 06:10:05;;;;;;;26.77;8.45;;;;;;;8.71;100.00;102376.47;5009779;28;20025;-73
2023/05/24 06:12:30;;;;;;;26.00;9.05;;;;;;;8.82;100.00;102380.44;5009523;28;20075;-73
2023/05/24 06:14:56;;;;;;;30.05;9.43;;;;;;;8.93;100.00;102378.22;5011027;28;20105;-73
2023/05/24 06:17:23;;;;;;;32.35;9.93;;;;;;;9.05;100.00;102388.19;5010712;28;20110;-76
2023/05/24 06:19:52;;;;;;;24.10;9.20;;;;;;;9.09;100.00;102389.75;5009941;28;20024;-75
2023/05/24 06:22:18;;;;;;;29.73;10.27;;;;;;;9.19;100.00;102384.97;5011041;28;20112;-76
2023/05/24 06:24:51;;;;;;;31.83;10.65;;;;;;;9.30;100.00;102382.75;5010799;28;20164;-73
2023/05/24 06:27:17;;;;;;;30.08;10.00;;;;;;;9.43;100.00;102384.75;5010030;28;20049;-74
2023/05/24 06:29:42;;;;;;;32.60;11.45;;;;;;;9.52;99.88;102382.63;5010803;28;20060;-73
2023/05/24 06:32:08;;;;;;;28.77;9.65;;;;;;;9.58;99.95;102384.97;5010521;28;20110;-73
2023/05/24 06:34:33;;;;;;;26.95;9.43;;;;;;;9.70;98.96;102381.81;5009478;28;20033;-73
2023/05/24 06:36:58;;;;;;;29.00;9.50;;;;;;;9.81;98.19;102384.78;4989681;28;20027;-73
2023/05/24 06:39:24;;;;;;;29.95;9.93;;;;;;;9.91;98.08;102383.44;5009353;28;20075;-74
2023/05/24 06:41:50;;;;;;;26.77;9.10;;;;;;;10.05;97.91;102388.91;5008428;28;20062;-74
2023/05/24 06:44:15;;;;;;;25.95;9.60;;;;;;;10.19;98.63;102387.41;4991869;28;20021;-73
2023/05/24 06:46:41;;;;;;;26.15;9.85;;;;;;;10.32;97.38;102380.66;5008970;28;20069;-73
2023/05/24 06:49:06;;;;;;;28.92;10.52;;;;;;;10.41;94.99;102376.75;5008504;28;20098;-73
2023/05/24 06:51:35;;;;;;;29.20;10.40;;;;;;;10.53;93.96;102378.78;5009480;28;20022;-73
2023/05/24 06:54:01;;;;;;;32.45;10.98;;;;;;;10.68;92.96;102378.84;5008620;28;20022;-73
2023/05/24 06:56:27;;;;;;;33.00;10.27;;;;;;;10.87;92.47;102388.47;5007576;28;20033;-73
2023/05/24 06:58:54;;;;;;;24.25;9.50;;;;;;;11.11;91.79;102387.22;5008779;28;20080;-73
2023/05/24 07:01:19;;;;;;;22.35;9.23;;;;;;;11.33;90.88;102386.13;4990849;28;20030;-73
2023/05/24 07:03:45;;;;;;;32.03;10.63;;;;;;;11.57;88.77;102385.66;5009367;28;20030;-72
2023/05/24 07:06:12;;;;;;;28.90;11.63;;;;;;;11.87;88.18;102387.59;5008936;28;20042;-72
2023/05/24 07:08:39;;;;;;;26.48;11.07;;;;;;;12.09;86.92;102382.84;5008585;28;20372;-72
2023/05/24 07:11:05;;;;;;;29.52;11.00;;;;;;;12.35;83.93;102391.06;4991481;28;20026;-73
2023/05/24 07:13:30;;;;;;;30.73;12.10;;;;;;;12.48;82.29;102387.69;5009741;28;20072;-72
2023/05/24 07:15:56;;;;;;;29.48;10.82;;;;;;;12.75;81.41;102381.72;5008198;28;20398;-72
2023/05/24 07:18:22;;;;;;;23.33;10.90;;;;;;;12.98;78.93;102378.59;4992765;28;20117;-72
2023/05/24 07:20:50;;;;;;;21.45;8.77;;;;;;;13.07;75.05;102385.09;5009337;28;20029;-73
2023/05/24 07:23:16;;;;;;;24.42;8.65;;;;;;;13.14;74.47;102392.56;5009415;28;20062;-74
2023/05/24 07:25:41;;;;;;;22.90;8.55;;;;;;;13.13;73.56;102387.38;5009376;28;20113;-74
2023/05/24 07:28:07;;;;;;;26.73;8.55;;;;;;;12.99;72.75;102390.84;5009928;28;20040;-73
2023/05/24 07:30:32;;;;;;;25.80;8.60;;;;;;;13.21;73.61;102386.94;4992158;28;20061;-72
2023/05/24 07:32:58;;;;;;;19.73;7.93;;;;;;;13.62;71.88;102393.22;5010286;28;20030;-73
2023/05/24 07:35:24;;;;;;;20.55;7.55;;;;;;;13.82;70.53;102389.31;5009928;28;20034;-73
2023/05/24 07:37:49;;;;;;;21.17;7.00;;;;;;;14.04;69.05;102387.03;5007477;28;20068;-73
2023/05/24 07:40:15;;;;;;;20.70;6.82;;;;;;;14.07;67.60;102392.13;5010530;28;20025;-73
2023/05/24 07:42:40;;;;;;;22.02;6.88;;;;;;;14.16;67.47;102400.41;5008666;28;20076;-73
2023/05/24 07:45:07;;;;;;;23.50;7.25;;;;;;;14.13;67.39;102390.88;5008550;28;20439;-73
2023/05/24 07:47:34;;;;;;;19.52;6.68;;;;;;;14.31;67.14;102394.97;5007636;28;20030;-73
2023/05/24 07:50:03;;;;;;;18.17;6.32;;;;;;;14.80;66.54;102389.09;5006739;28;20560;-73
2023/05/24 07:52:29;;;;;;;18.98;6.10;;;;;;;15.12;63.32;102388.75;5007310;28;20026;-74
2023/05/24 07:54:54;;;;;;;18.33;6.57;;;;;;;15.25;64.18;102390.47;5006591;28;20097;-73
2023/05/24 07:57:20;;;;;;;19.27;6.45;;;;;;;15.41;61.38;102395.53;5008320;28;20034;-73
2023/05/24 07:59:45;;;;;;;20.15;7.05;;;;;;;15.22;61.84;102392.47;5008017;28;20076;-74
2023/05/24 08:02:15;;;;;;;21.50;5.88;;;;;;;15.17;59.39;102394.56;5007114;28;20461;-73
2023/05/24 08:04:42;;;;;;;13.82;4.90;;;;;;;15.37;59.22;102396.72;4990275;28;20077;-73
2023/05/24 08:07:08;;;;;;;16.67;5.25;;;;;;;15.47;56.32;102387.16;5008715;28;20434;-73
2023/05/24 08:09:35;;;;;;;15.77;5.00;;;;;;;15.83;57.24;102397.00;4994936;28;20022;-73
2023/05/24 08:12:01;;;;;;;18.55;5.03;;;;;;;15.92;56.71;102392.84;5011112;28;20018;-73
2023/05/24 08:14:27;;;;;;;17.50;5.03;;;;;;;15.82;57.70;102391.81;4994699;28;20533;-74
2023/05/24 08:16:52;;;;;;;18.80;5.43;;;;;;;15.36;59.03;102395.00;5011794;28;20026;-73
2023/05/24 08:19:18;;;;;;;13.88;4.68;;;;;;;15.23;56.95;102388.88;5011260;28;20034;-73
2023/05/24 08:21:44;;;;;;;14.30;4.53;;;;;;;15.28;55.59;102398.19;5012039;28;20022;-73
2023/05/24 08:24:10;;;;;;;15.80;4.95;;;;;;;15.70;55.03;102382.06;5011272;28;20025;-74
2023/05/24 08:26:38;;;;;;;18.08;5.05;;;;;;;16.17;55.18;102398.09;5011539;28;20065;-73
2023/05/24 08:29:03;;;;;;;14.32;4.78;;;;;;;16.61;53.79;102380.66;5011796;28;20041;-73
2023/05/24 08:31:35;;;;;;;13.10;5.03;;;;;;;17.07;53.24;102379.88;5011916;28;20390;-74
2023/05/24 08:34:01;;;;;;;13.45;5.50;;;;;;;17.31;51.08;102380.63;5010113;28;20080;-73
2023/05/24 08:36:26;;;;;;;16.88;5.07;;;;;;;17.32;51.40;102387.66;5013057;28;20032;-74
2023/05/24 08:38:52;;;;;;;15.90;5.18;;;;;;;17.09;52.67;102370.78;5012484;28;20384;-73
2023/05/24 08:41:17;;;;;;;13.23;5.18;;;;;;;17.37;51.61;102364.19;5010499;28;20034;-73
2023/05/24 08:43:43;;;;;;;13.80;4.75;;;;;;;17.36;49.82;102364.31;5012200;28;20053;-73
2023/05/24 08:46:12;;;;;;;15.77;5.07;;;;;;;17.47;52.30;102361.63;4994493;28;20498;-73
2023/05/24 08:48:46;;;;;;;16.05;4.88;;;;;;;16.86;50.72;102367.25;5011625;28;20383;-73
2023/05/24 08:51:16;;;;;;;13.95;4.75;;;;;;;16.55;52.50;102367.84;5011911;28;20026;-73
2023/05/24 08:53:47;;;;;;;14.13;4.38;;;;;;;16.44;52.77;102362.50;5011186;28;20029;-73
2023/05/24 08:56:16;;;;;;;15.70;5.97;;;;;;;16.54;51.94;102361.69;5012275;28;20080;-73
2023/05/24 08:58:41;;;;;;;15.38;6.22;;;;;;;16.30;51.67;102359.03;5011911;28;20025;-73
2023/05/24 09:01:08;;;;;;;13.55;4.30;;;;;;;16.17;52.92;102357.41;5010634;28;20084;-72
2023/05/24 09:03:36;;;;;;;10.90;4.20;;;;;;;16.30;52.99;102351.06;5009968;28;20537;-73
2023/05/24 09:06:02;;;;;;;13.40;4.90;;;;;;;16.85;50.92;102351.44;5010751;28;20054;-73
2023/05/24 09:08:33;;;;;;;12.82;4.38;;;;;;;17.21;50.19;102339.72;5012057;28;20034;-74
2023/05/24 09:11:02;;;;;;;18.73;4.93;;;;;;;17.70;49.86;102351.88;5011563;28;20076;-73
2023/05/24 09:13:33;;;;;;;13.60;4.30;;;;;;;18.17;48.52;102348.84;5011380;28;20025;-73
2023/05/24 09:16:03;;;;;;;11.65;3.95;;;;;;;18.88;46.26;102348.34;5010273;28;20037;-73
2023/05/24 09:18:28;;;;;;;19.65;4.90;;;;;;;18.63;46.29;102345.06;5012108;28;20134;-73
2023/05/24 09:20:54;;;;;;;12.23;4.65;;;;;;;18.26;47.28;102351.72;5010772;28;20113;-73
2023/05/24 09:23:19;;;;;;;14.13;4.13;;;;;;;18.06;48.73;102346.25;5010667;28;20121;-73
2023/05/24 09:25:46;;;;;;;12.07;4.25;;;;;;;17.71;48.17;102350.91;5010635;28;20025;-73
2023/05/24 09:28:14;;;;;;;17.80;5.00;;;;;;;17.48;48.79;102350.03;5010937;28;20446;-73
2023/05/24 09:30:44;;;;;;;15.85;5.07;;;;;;;17.65;48.65;102354.03;5010423;28;20021;-73
2023/05/24 09:33:11;;;;;;;12.18;4.82;;;;;;;17.95;49.59;102350.72;5008920;28;20088;-74
2023/05/24 09:35:37;;;;;;;13.07;5.03;;;;;;;18.19;47.85;102346.06;4993407;28;20541;-73
2023/05/24 09:38:02;;;;;;;16.27;5.22;;;;;;;18.21;47.45;102354.78;4992388;28;20038;-74
2023/05/24 09:40:28;;;;;;;14.00;3.90;;;;;;;18.27;44.13;102340.09;5010891;28;20033;-73
2023/05/24 09:43:08;;;;;;;12.80;4.13;;;;;;;18.81;46.05;102337.31;5010576;28;20057;-77
2023/05/24 09:45:45;;;;;;;14.23;4.38;;;;;;;18.90;45.34;102335.72;5012142;28;20053;-73
2023/05/24 09:48:12;;;;;;;12.60;4.10;;;;;;;18.98;44.51;102341.22;5011467;28;20033;-73
2023/05/24 09:50:38;;;;;;;16.33;4.30;;;;;;;18.92;43.97;102333.75;5011280;28;20055;-73
2023/05/24 09:53:03;;;;;;;13.05;4.30;;;;;;;18.99;44.71;102334.91;5009940;28;20030;-73
2023/05/24 09:55:34;;;;;;;11.57;3.80;;;;;;;19.01;43.96;102327.63;5011344;28;20037;-73
2023/05/24 09:58:06;;;;;;;9.93;3.80;;;;;;;18.93;43.87;102330.94;5009976;28;20034;-74
2023/05/24 10:00:35;;;;;;;12.65;3.70;;;;;;;19.03;42.83;102331.84;4993985;28;20025;-73
2023/05/24 10:03:06;;;;;;;9.00;3.45;;;;;;;19.14;43.14;102338.06;5010439;28;20036;-73
2023/05/24 10:05:32;;;;;;;11.43;4.40;;;;;;;19.30;42.88;102333.13;5015291;28;20418;-73
2023/05/24 10:07:58;;;;;;;11.85;3.83;;;;;;;19.37;41.64;102331.59;5027157;28;20047;-73
2023/05/24 10:10:28;;;;;;;13.35;3.70;;;;;;;19.17;42.08;102333.31;5029912;28;20052;-74
2023/05/24 10:13:01;;;;;;;12.13;4.43;;;;;;;18.63;43.75;102329.06;5027081;28;20493;-73
2023/05/24 10:15:29;;;;;;;16.40;4.68;;;;;;;18.66;44.60;102326.13;5028615;28;20540;-73
2023/05/24 10:17:55;;;;;;;16.08;4.45;;;;;;;18.67;44.88;102330.50;5043478;28;20485;-73
2023/05/24 10:20:22;;;;;;;12.15;4.25;;;;;;;18.36;44.22;102329.53;5028070;28;20497;-74
2023/05/24 10:22:51;;;;;;;12.45;4.20;;;;;;;18.45;45.33;102326.09;5029659;28;20478;-73
2023/05/24 10:25:21;;;;;;;12.13;4.05;;;;;;;18.64;45.04;102320.09;5028547;28;20405;-73
2023/05/24 10:27:49;;;;;;;10.73;3.60;;;;;;;18.62;42.52;102318.53;5029183;28;20477;-74
2023/05/24 10:30:28;;;;;;;10.40;3.55;;;;;;;18.95;43.13;102317.47;5029706;28;20045;-73
2023/05/24 10:32:55;;;;;;;10.65;3.80;;;;;;;19.29;43.21;102318.06;5028369;28;20026;-74
2023/05/24 10:35:23;;;;;;;13.35;4.18;;;;;;;19.49;41.94;102324.31;5029361;28;20040;-73
2023/05/24 10:37:53;;;;;;;17.25;3.85;;;;;;;19.29;41.21;102321.59;5029619;28;20025;-73
2023/05/24 10:40:20;;;;;;;12.60;4.38;;;;;;;19.01;42.85;102325.81;5030036;28;20112;-73
2023/05/24 10:42:47;;;;;;;17.13;4.00;;;;;;;18.74;43.76;102318.31;5030130;28;20382;-73
2023/05/24 10:45:38;;;;;;;14.13;4.10;;;;;;;18.87;45.80;102326.16;5030217;28;20013;-73
2023/05/24 10:48:13;;;;;;;17.20;4.57;;;;;;;18.39;45.22;102326.59;5027401;28;20120;-73
2023/05/24 10:50:39;;;;;;;12.77;3.85;;;;;;;18.21;45.72;102317.47;5030720;28;20078;-73
2023/05/24 10:53:17;;;;;;;10.82;3.78;;;;;;;18.11;45.84;102313.88;5029664;28;20034;-73
2023/05/24 10:55:52;;;;;;;13.68;4.40;;;;;;;18.01;46.34;102323.59;5045471;28;20025;-73
2023/05/24 10:58:19;;;;;;;16.95;4.40;;;;;;;17.82;46.07;102321.59;5029169;28;20079;-73
2023/05/24 11:00:45;;;;;;;10.68;4.05;;;;;;;17.83;46.90;102316.13;5044766;28;20104;-73
2023/05/24 11:03:12;;;;;;;12.73;4.15;;;;;;;17.57;46.38;102316.50;5029017;28;20604;-73
2023/05/24 11:05:47;;;;;;;11.98;4.22;;;;;;;17.52;47.72;102314.22;5029232;28;20049;-73
2023/05/24 11:08:13;;;;;;;10.88;3.83;;;;;;;17.58;47.92;102308.41;5028362;28;20422;-73
2023/05/24 11:10:40;;;;;;;11.32;3.70;;;;;;;17.70;47.55;102311.94;5029112;28;20037;-73
2023/05/24 11:13:08;;;;;;;12.32;4.22;;;;;;;17.70;47.01;102312.78;5028531;28;20456;-73
2023/05/24 11:15:34;;;;;;;12.98;4.05;;;;;;;17.67;46.84;102321.03;5028341;28;20382;-73
2023/05/24 11:18:05;;;;;;;12.18;4.32;;;;;;;17.48;47.74;102323.41;5028817;28;20026;-73
2023/05/24 11:20:32;;;;;;;13.15;3.80;;;;;;;17.57;48.30;102322.66;5028886;28;20025;-73
2023/05/24 11:22:58;;;;;;;15.68;4.03;;;;;;;17.58;48.42;102321.72;5028110;28;20045;-73